sensor_id;sensor_type;location;lat;lon;timestamp;P1;durP1;ratioP1;P2;durP2;ratioP2
3755;SDS011;1893;52.526;13.360;2023-03-31T00:00:56;3.50;;;2.40;;
3755;SDS011;1893;52.526;13.360;2023-03-31T00:03:24;4.83;;;2.53;;
3755;SDS011;1893;52.526;13.360;2023-03-31T00:05:54;2.53;;;2.00;;
3755;SDS011;1893;52.526;13.360;2023-03-31T00:08:22;4.60;;;2.60;;
3755;SDS011;1893;52.526;13.360;2023-03-31T00:10:48;3.97;;;2.27;;
3755;SDS011;1893;52.526;13.360;2023-03-31T00:13:13;4.40;;;2.03;;
3755;SDS011;1893;52.526;13.360;2023-03-31T00:15:39;8.10;;;2.20;;
3755;SDS011;1893;52.526;13.360;2023-03-31T00:18:05;5.40;;;2.10;;
3755;SDS011;1893;52.526;13.360;2023-03-31T00:20:31;2.17;;;1.90;;
3755;SDS011;1893;52.526;13.360;2023-03-31T00:23:01;6.07;;;2.17;;
3755;SDS011;1893;52.526;13.360;2023-03-31T00:25:30;4.43;;;1.97;;
3755;SDS011;1893;52.526;13.360;2023-03-31T00:27:56;5.43;;;2.27;;
3755;SDS011;1893;52.526;13.360;2023-03-31T00:30:22;6.97;;;1.83;;
3755;SDS011;1893;52.526;13.360;2023-03-31T00:32:47;4.53;;;2.20;;
3755;SDS011;1893;52.526;13.360;2023-03-31T00:35:13;14.53;;;2.63;;
3755;SDS011;1893;52.526;13.360;2023-03-31T00:37:39;7.20;;;2.40;;
3755;SDS011;1893;52.526;13.360;2023-03-31T00:40:04;13.90;;;1.80;;
3755;SDS011;1893;52.526;13.360;2023-03-31T00:42:33;6.73;;;1.70;;
3755;SDS011;1893;52.526;13.360;2023-03-31T00:47:42;1.90;;;1.50;;
3755;SDS011;1893;52.526;13.360;2023-03-31T00:50:15;6.97;;;2.07;;
3755;SDS011;1893;52.526;13.360;2023-03-31T00:52:44;3.67;;;1.90;;
3755;SDS011;1893;52.526;13.360;2023-03-31T00:55:13;9.07;;;1.70;;
3755;SDS011;1893;52.526;13.360;2023-03-31T00:57:42;8.10;;;2.17;;
3755;SDS011;1893;52.526;13.360;2023-03-31T01:00:11;5.13;;;1.50;;
3755;SDS011;1893;52.526;13.360;2023-03-31T01:02:40;5.43;;;1.97;;
3755;SDS011;1893;52.526;13.360;2023-03-31T01:05:15;3.53;;;1.50;;
3755;SDS011;1893;52.526;13.360;2023-03-31T01:07:45;6.23;;;1.67;;
3755;SDS011;1893;52.526;13.360;2023-03-31T01:10:13;6.20;;;1.60;;
3755;SDS011;1893;52.526;13.360;2023-03-31T01:12:40;3.93;;;1.60;;
3755;SDS011;1893;52.526;13.360;2023-03-31T01:15:09;2.70;;;1.50;;
3755;SDS011;1893;52.526;13.360;2023-03-31T01:17:35;7.00;;;2.00;;
3755;SDS011;1893;52.526;13.360;2023-03-31T01:28:49;5.87;;;1.93;;
3755;SDS011;1893;52.526;13.360;2023-03-31T01:47:38;7.43;;;1.60;;
3755;SDS011;1893;52.526;13.360;2023-03-31T01:50:16;6.23;;;1.60;;
3755;SDS011;1893;52.526;13.360;2023-03-31T01:55:36;3.80;;;1.33;;
3755;SDS011;1893;52.526;13.360;2023-03-31T01:58:11;7.83;;;1.30;;
3755;SDS011;1893;52.526;13.360;2023-03-31T02:00:54;10.33;;;1.80;;
3755;SDS011;1893;52.526;13.360;2023-03-31T02:03:30;2.17;;;1.50;;
3755;SDS011;1893;52.526;13.360;2023-03-31T02:06:09;2.20;;;1.17;;
3755;SDS011;1893;52.526;13.360;2023-03-31T02:08:43;3.73;;;1.50;;
3755;SDS011;1893;52.526;13.360;2023-03-31T02:11:19;2.00;;;1.20;;
3755;SDS011;1893;52.526;13.360;2023-03-31T02:13:46;1.87;;;1.10;;
3755;SDS011;1893;52.526;13.360;2023-03-31T02:16:17;3.43;;;1.10;;
3755;SDS011;1893;52.526;13.360;2023-03-31T02:18:48;2.47;;;1.20;;
3755;SDS011;1893;52.526;13.360;2023-03-31T02:21:18;2.20;;;1.47;;
3755;SDS011;1893;52.526;13.360;2023-03-31T02:23:46;5.20;;;1.30;;
3755;SDS011;1893;52.526;13.360;2023-03-31T02:26:15;6.63;;;1.53;;
3755;SDS011;1893;52.526;13.360;2023-03-31T02:28:47;8.67;;;1.47;;
3755;SDS011;1893;52.526;13.360;2023-03-31T02:33:48;8.70;;;2.00;;
3755;SDS011;1893;52.526;13.360;2023-03-31T02:36:14;6.20;;;1.40;;
3755;SDS011;1893;52.526;13.360;2023-03-31T02:38:51;1.93;;;1.50;;
3755;SDS011;1893;52.526;13.360;2023-03-31T02:41:24;3.70;;;1.60;;
3755;SDS011;1893;52.526;13.360;2023-03-31T02:43:50;3.73;;;1.40;;
3755;SDS011;1893;52.526;13.360;2023-03-31T02:46:15;4.83;;;1.43;;
3755;SDS011;1893;52.526;13.360;2023-03-31T02:48:42;1.93;;;1.10;;
3755;SDS011;1893;52.526;13.360;2023-03-31T02:54:36;3.20;;;1.97;;
3755;SDS011;1893;52.526;13.360;2023-03-31T03:06:04;2.10;;;1.50;;
3755;SDS011;1893;52.526;13.360;2023-03-31T03:11:47;3.70;;;1.40;;
3755;SDS011;1893;52.526;13.360;2023-03-31T03:19:49;3.00;;;1.40;;
3755;SDS011;1893;52.526;13.360;2023-03-31T03:22:19;2.07;;;1.10;;
3755;SDS011;1893;52.526;13.360;2023-03-31T03:24:45;2.50;;;1.47;;
3755;SDS011;1893;52.526;13.360;2023-03-31T03:27:11;5.33;;;1.50;;
3755;SDS011;1893;52.526;13.360;2023-03-31T03:29:36;4.20;;;1.13;;
3755;SDS011;1893;52.526;13.360;2023-03-31T03:32:02;4.87;;;1.50;;
3755;SDS011;1893;52.526;13.360;2023-03-31T03:34:28;4.50;;;1.37;;
3755;SDS011;1893;52.526;13.360;2023-03-31T03:36:53;6.10;;;1.60;;
3755;SDS011;1893;52.526;13.360;2023-03-31T03:39:19;5.50;;;1.70;;
3755;SDS011;1893;52.526;13.360;2023-03-31T03:41:45;1.33;;;1.10;;
3755;SDS011;1893;52.526;13.360;2023-03-31T03:44:10;4.03;;;1.20;;
3755;SDS011;1893;52.526;13.360;2023-03-31T03:46:36;5.80;;;1.20;;
3755;SDS011;1893;52.526;13.360;2023-03-31T03:49:02;3.30;;;1.20;;
3755;SDS011;1893;52.526;13.360;2023-03-31T03:51:27;2.63;;;1.20;;
3755;SDS011;1893;52.526;13.360;2023-03-31T03:53:53;3.63;;;1.13;;
3755;SDS011;1893;52.526;13.360;2023-03-31T03:56:19;5.10;;;1.30;;
3755;SDS011;1893;52.526;13.360;2023-03-31T03:58:46;3.47;;;1.00;;
3755;SDS011;1893;52.526;13.360;2023-03-31T04:01:11;1.50;;;1.13;;
3755;SDS011;1893;52.526;13.360;2023-03-31T04:03:38;4.17;;;1.40;;
3755;SDS011;1893;52.526;13.360;2023-03-31T04:06:04;4.40;;;1.63;;
3755;SDS011;1893;52.526;13.360;2023-03-31T04:08:30;5.70;;;2.70;;
3755;SDS011;1893;52.526;13.360;2023-03-31T04:10:55;7.40;;;1.50;;
3755;SDS011;1893;52.526;13.360;2023-03-31T04:13:21;4.30;;;1.10;;
3755;SDS011;1893;52.526;13.360;2023-03-31T04:15:46;4.30;;;1.00;;
3755;SDS011;1893;52.526;13.360;2023-03-31T04:18:13;6.33;;;1.67;;
3755;SDS011;1893;52.526;13.360;2023-03-31T04:20:51;10.80;;;1.50;;
3755;SDS011;1893;52.526;13.360;2023-03-31T04:23:41;3.40;;;1.20;;
3755;SDS011;1893;52.526;13.360;2023-03-31T04:26:11;4.97;;;1.60;;
3755;SDS011;1893;52.526;13.360;2023-03-31T04:28:37;5.00;;;1.43;;
3755;SDS011;1893;52.526;13.360;2023-03-31T04:31:07;5.83;;;1.50;;
3755;SDS011;1893;52.526;13.360;2023-03-31T04:33:39;2.90;;;1.27;;
3755;SDS011;1893;52.526;13.360;2023-03-31T04:36:05;2.97;;;1.50;;
3755;SDS011;1893;52.526;13.360;2023-03-31T04:38:41;6.53;;;1.60;;
3755;SDS011;1893;52.526;13.360;2023-03-31T04:41:10;5.30;;;3.17;;
3755;SDS011;1893;52.526;13.360;2023-03-31T04:43:39;3.93;;;1.50;;
3755;SDS011;1893;52.526;13.360;2023-03-31T04:46:05;4.50;;;1.43;;
3755;SDS011;1893;52.526;13.360;2023-03-31T04:48:30;6.30;;;1.53;;
3755;SDS011;1893;52.526;13.360;2023-03-31T04:50:56;1.87;;;1.30;;
3755;SDS011;1893;52.526;13.360;2023-03-31T04:53:22;1.43;;;1.10;;
3755;SDS011;1893;52.526;13.360;2023-03-31T04:55:48;2.10;;;1.20;;
3755;SDS011;1893;52.526;13.360;2023-03-31T04:58:14;4.57;;;1.40;;
3755;SDS011;1893;52.526;13.360;2023-03-31T05:00:40;5.40;;;1.40;;
3755;SDS011;1893;52.526;13.360;2023-03-31T05:03:05;7.67;;;1.77;;
3755;SDS011;1893;52.526;13.360;2023-03-31T05:05:31;3.80;;;1.20;;
3755;SDS011;1893;52.526;13.360;2023-03-31T05:07:57;3.60;;;1.40;;
3755;SDS011;1893;52.526;13.360;2023-03-31T05:10:23;4.40;;;1.40;;
3755;SDS011;1893;52.526;13.360;2023-03-31T05:12:49;3.63;;;1.33;;
3755;SDS011;1893;52.526;13.360;2023-03-31T05:15:15;13.00;;;4.13;;
3755;SDS011;1893;52.526;13.360;2023-03-31T05:17:41;7.23;;;1.20;;
3755;SDS011;1893;52.526;13.360;2023-03-31T05:20:07;1.20;;;1.10;;
3755;SDS011;1893;52.526;13.360;2023-03-31T05:22:34;3.20;;;1.17;;
3755;SDS011;1893;52.526;13.360;2023-03-31T05:25:01;2.70;;;1.53;;
3755;SDS011;1893;52.526;13.360;2023-03-31T05:27:28;6.17;;;1.50;;
3755;SDS011;1893;52.526;13.360;2023-03-31T05:29:53;4.07;;;1.50;;
3755;SDS011;1893;52.526;13.360;2023-03-31T05:32:19;3.50;;;1.60;;
3755;SDS011;1893;52.526;13.360;2023-03-31T05:34:45;4.43;;;1.73;;
3755;SDS011;1893;52.526;13.360;2023-03-31T05:37:10;3.07;;;1.63;;
3755;SDS011;1893;52.526;13.360;2023-03-31T05:39:36;4.10;;;1.40;;
3755;SDS011;1893;52.526;13.360;2023-03-31T05:42:01;2.60;;;1.20;;
3755;SDS011;1893;52.526;13.360;2023-03-31T05:44:29;5.80;;;1.77;;
3755;SDS011;1893;52.526;13.360;2023-03-31T05:46:55;4.20;;;1.43;;
3755;SDS011;1893;52.526;13.360;2023-03-31T05:49:20;4.87;;;1.50;;
3755;SDS011;1893;52.526;13.360;2023-03-31T05:51:46;8.63;;;1.87;;
3755;SDS011;1893;52.526;13.360;2023-03-31T05:54:12;1.50;;;1.20;;
3755;SDS011;1893;52.526;13.360;2023-03-31T05:56:38;6.80;;;1.43;;
3755;SDS011;1893;52.526;13.360;2023-03-31T05:59:04;6.80;;;1.70;;
3755;SDS011;1893;52.526;13.360;2023-03-31T06:01:29;5.33;;;1.90;;
3755;SDS011;1893;52.526;13.360;2023-03-31T06:03:55;5.97;;;1.50;;
3755;SDS011;1893;52.526;13.360;2023-03-31T06:06:21;6.37;;;1.50;;
3755;SDS011;1893;52.526;13.360;2023-03-31T06:08:47;4.17;;;1.80;;
3755;SDS011;1893;52.526;13.360;2023-03-31T06:11:14;4.87;;;1.53;;
3755;SDS011;1893;52.526;13.360;2023-03-31T06:13:43;2.80;;;1.50;;
3755;SDS011;1893;52.526;13.360;2023-03-31T06:16:11;12.00;;;2.37;;
3755;SDS011;1893;52.526;13.360;2023-03-31T06:18:38;4.40;;;1.50;;
3755;SDS011;1893;52.526;13.360;2023-03-31T06:21:04;5.83;;;1.70;;
3755;SDS011;1893;52.526;13.360;2023-03-31T06:23:31;7.80;;;1.57;;
3755;SDS011;1893;52.526;13.360;2023-03-31T06:26:00;2.83;;;1.70;;
3755;SDS011;1893;52.526;13.360;2023-03-31T06:28:28;7.80;;;2.00;;
3755;SDS011;1893;52.526;13.360;2023-03-31T06:31:00;5.33;;;2.07;;
3755;SDS011;1893;52.526;13.360;2023-03-31T06:33:27;3.50;;;1.77;;
3755;SDS011;1893;52.526;13.360;2023-03-31T06:35:56;8.30;;;1.73;;
3755;SDS011;1893;52.526;13.360;2023-03-31T06:38:24;5.53;;;1.80;;
3755;SDS011;1893;52.526;13.360;2023-03-31T06:40:50;3.63;;;1.73;;
3755;SDS011;1893;52.526;13.360;2023-03-31T06:43:15;4.77;;;2.00;;
3755;SDS011;1893;52.526;13.360;2023-03-31T06:45:41;5.03;;;1.80;;
3755;SDS011;1893;52.526;13.360;2023-03-31T06:48:06;5.87;;;1.83;;
3755;SDS011;1893;52.526;13.360;2023-03-31T06:50:32;4.20;;;1.60;;
3755;SDS011;1893;52.526;13.360;2023-03-31T06:52:58;8.47;;;1.80;;
3755;SDS011;1893;52.526;13.360;2023-03-31T06:55:24;3.80;;;1.70;;
3755;SDS011;1893;52.526;13.360;2023-03-31T06:57:49;4.17;;;2.03;;
3755;SDS011;1893;52.526;13.360;2023-03-31T07:00:15;5.30;;;1.87;;
3755;SDS011;1893;52.526;13.360;2023-03-31T07:02:41;6.70;;;1.73;;
3755;SDS011;1893;52.526;13.360;2023-03-31T07:05:07;8.47;;;1.97;;
3755;SDS011;1893;52.526;13.360;2023-03-31T07:07:33;6.30;;;1.57;;
3755;SDS011;1893;52.526;13.360;2023-03-31T07:09:58;5.33;;;2.10;;
3755;SDS011;1893;52.526;13.360;2023-03-31T07:12:24;4.87;;;1.73;;
3755;SDS011;1893;52.526;13.360;2023-03-31T07:14:50;5.50;;;1.80;;
3755;SDS011;1893;52.526;13.360;2023-03-31T07:17:15;11.40;;;3.20;;
3755;SDS011;1893;52.526;13.360;2023-03-31T07:19:41;5.43;;;1.87;;
3755;SDS011;1893;52.526;13.360;2023-03-31T07:22:07;6.43;;;1.90;;
3755;SDS011;1893;52.526;13.360;2023-03-31T07:24:33;5.53;;;2.10;;
3755;SDS011;1893;52.526;13.360;2023-03-31T07:26:58;6.77;;;2.10;;
3755;SDS011;1893;52.526;13.360;2023-03-31T07:29:24;5.23;;;2.10;;
3755;SDS011;1893;52.526;13.360;2023-03-31T07:31:50;3.87;;;2.17;;
3755;SDS011;1893;52.526;13.360;2023-03-31T07:34:16;4.60;;;1.87;;
3755;SDS011;1893;52.526;13.360;2023-03-31T07:36:42;9.23;;;2.10;;
3755;SDS011;1893;52.526;13.360;2023-03-31T07:39:08;5.10;;;1.67;;
3755;SDS011;1893;52.526;13.360;2023-03-31T07:41:33;11.10;;;2.47;;
3755;SDS011;1893;52.526;13.360;2023-03-31T07:44:00;5.87;;;1.93;;
3755;SDS011;1893;52.526;13.360;2023-03-31T07:46:26;2.80;;;1.60;;
3755;SDS011;1893;52.526;13.360;2023-03-31T07:48:53;5.40;;;1.53;;
3755;SDS011;1893;52.526;13.360;2023-03-31T07:51:21;4.60;;;1.60;;
3755;SDS011;1893;52.526;13.360;2023-03-31T07:53:50;10.90;;;1.83;;
3755;SDS011;1893;52.526;13.360;2023-03-31T07:56:17;4.30;;;1.87;;
3755;SDS011;1893;52.526;13.360;2023-03-31T07:58:44;2.10;;;1.40;;
3755;SDS011;1893;52.526;13.360;2023-03-31T08:01:12;8.00;;;1.87;;
3755;SDS011;1893;52.526;13.360;2023-03-31T08:03:43;5.53;;;1.60;;
3755;SDS011;1893;52.526;13.360;2023-03-31T08:06:11;2.83;;;1.40;;
3755;SDS011;1893;52.526;13.360;2023-03-31T08:08:41;6.23;;;2.23;;
3755;SDS011;1893;52.526;13.360;2023-03-31T08:11:07;4.60;;;1.90;;
3755;SDS011;1893;52.526;13.360;2023-03-31T08:13:33;5.20;;;1.50;;
3755;SDS011;1893;52.526;13.360;2023-03-31T08:15:59;6.30;;;2.07;;
3755;SDS011;1893;52.526;13.360;2023-03-31T08:18:24;5.43;;;1.67;;
3755;SDS011;1893;52.526;13.360;2023-03-31T08:20:50;5.63;;;1.83;;
3755;SDS011;1893;52.526;13.360;2023-03-31T08:23:16;3.03;;;1.37;;
3755;SDS011;1893;52.526;13.360;2023-03-31T08:25:41;6.97;;;1.93;;
3755;SDS011;1893;52.526;13.360;2023-03-31T08:28:07;7.77;;;2.50;;
3755;SDS011;1893;52.526;13.360;2023-03-31T08:30:37;6.13;;;1.50;;
3755;SDS011;1893;52.526;13.360;2023-03-31T08:33:04;7.60;;;1.60;;
3755;SDS011;1893;52.526;13.360;2023-03-31T08:35:29;4.13;;;1.90;;
3755;SDS011;1893;52.526;13.360;2023-03-31T08:37:55;4.33;;;1.50;;
3755;SDS011;1893;52.526;13.360;2023-03-31T08:40:21;7.63;;;1.63;;
3755;SDS011;1893;52.526;13.360;2023-03-31T08:42:53;8.23;;;1.20;;
3755;SDS011;1893;52.526;13.360;2023-03-31T08:45:23;5.07;;;1.50;;
3755;SDS011;1893;52.526;13.360;2023-03-31T08:47:54;9.07;;;1.77;;
3755;SDS011;1893;52.526;13.360;2023-03-31T08:50:26;6.87;;;1.87;;
3755;SDS011;1893;52.526;13.360;2023-03-31T08:55:45;4.20;;;1.47;;
3755;SDS011;1893;52.526;13.360;2023-03-31T09:12:22;5.10;;;1.57;;
3755;SDS011;1893;52.526;13.360;2023-03-31T09:15:11;11.03;;;1.97;;
3755;SDS011;1893;52.526;13.360;2023-03-31T09:17:44;4.93;;;1.50;;
3755;SDS011;1893;52.526;13.360;2023-03-31T09:22:44;3.50;;;1.53;;
3755;SDS011;1893;52.526;13.360;2023-03-31T09:25:20;4.10;;;1.37;;
3755;SDS011;1893;52.526;13.360;2023-03-31T09:27:51;3.93;;;1.50;;
3755;SDS011;1893;52.526;13.360;2023-03-31T09:30:26;5.27;;;1.50;;
3755;SDS011;1893;52.526;13.360;2023-03-31T09:32:57;5.27;;;1.50;;
3755;SDS011;1893;52.526;13.360;2023-03-31T09:35:39;6.00;;;1.67;;
3755;SDS011;1893;52.526;13.360;2023-03-31T09:38:05;9.13;;;2.00;;
3755;SDS011;1893;52.526;13.360;2023-03-31T09:40:31;2.97;;;1.30;;
3755;SDS011;1893;52.526;13.360;2023-03-31T09:42:59;8.43;;;1.70;;
3755;SDS011;1893;52.526;13.360;2023-03-31T09:45:30;3.17;;;1.20;;
3755;SDS011;1893;52.526;13.360;2023-03-31T09:47:58;4.30;;;2.00;;
3755;SDS011;1893;52.526;13.360;2023-03-31T09:50:27;11.60;;;1.83;;
3755;SDS011;1893;52.526;13.360;2023-03-31T09:52:55;5.10;;;1.40;;
3755;SDS011;1893;52.526;13.360;2023-03-31T09:55:24;5.70;;;1.67;;
3755;SDS011;1893;52.526;13.360;2023-03-31T09:57:51;7.50;;;1.50;;
3755;SDS011;1893;52.526;13.360;2023-03-31T10:00:18;3.70;;;1.10;;
3755;SDS011;1893;52.526;13.360;2023-03-31T10:02:52;1.43;;;1.30;;
3755;SDS011;1893;52.526;13.360;2023-03-31T10:05:35;4.43;;;1.57;;
3755;SDS011;1893;52.526;13.360;2023-03-31T10:10:35;2.73;;;1.57;;
3755;SDS011;1893;52.526;13.360;2023-03-31T10:13:01;4.43;;;2.37;;
3755;SDS011;1893;52.526;13.360;2023-03-31T10:15:35;3.73;;;1.60;;
3755;SDS011;1893;52.526;13.360;2023-03-31T10:18:02;5.17;;;1.77;;
3755;SDS011;1893;52.526;13.360;2023-03-31T10:20:38;7.10;;;2.00;;
3755;SDS011;1893;52.526;13.360;2023-03-31T10:23:14;4.53;;;1.23;;
3755;SDS011;1893;52.526;13.360;2023-03-31T10:25:46;3.47;;;1.77;;
3755;SDS011;1893;52.526;13.360;2023-03-31T10:28:17;4.73;;;1.70;;
3755;SDS011;1893;52.526;13.360;2023-03-31T10:30:54;3.90;;;1.50;;
3755;SDS011;1893;52.526;13.360;2023-03-31T10:33:22;3.73;;;2.20;;
3755;SDS011;1893;52.526;13.360;2023-03-31T10:36:01;5.90;;;2.10;;
3755;SDS011;1893;52.526;13.360;2023-03-31T10:38:41;3.80;;;2.13;;
3755;SDS011;1893;52.526;13.360;2023-03-31T10:41:09;2.77;;;1.80;;
3755;SDS011;1893;52.526;13.360;2023-03-31T10:43:39;5.63;;;2.67;;
3755;SDS011;1893;52.526;13.360;2023-03-31T10:46:07;4.17;;;1.80;;
3755;SDS011;1893;52.526;13.360;2023-03-31T10:48:34;4.60;;;2.37;;
3755;SDS011;1893;52.526;13.360;2023-03-31T10:53:48;3.50;;;2.40;;
3755;SDS011;1893;52.526;13.360;2023-03-31T11:02:33;5.23;;;2.30;;
3755;SDS011;1893;52.526;13.360;2023-03-31T11:05:26;3.20;;;2.37;;
3755;SDS011;1893;52.526;13.360;2023-03-31T11:11:06;2.50;;;2.30;;
3755;SDS011;1893;52.526;13.360;2023-03-31T11:21:57;3.30;;;2.00;;
3755;SDS011;1893;52.526;13.360;2023-03-31T11:27:13;5.30;;;1.90;;
3755;SDS011;1893;52.526;13.360;2023-03-31T11:30:21;6.60;;;2.00;;
3755;SDS011;1893;52.526;13.360;2023-03-31T11:41:28;6.77;;;1.40;;
3755;SDS011;1893;52.526;13.360;2023-03-31T11:44:13;3.97;;;1.20;;
3755;SDS011;1893;52.526;13.360;2023-03-31T11:49:28;8.80;;;1.60;;
3755;SDS011;1893;52.526;13.360;2023-03-31T11:52:15;3.37;;;1.20;;
3755;SDS011;1893;52.526;13.360;2023-03-31T12:05:46;4.10;;;2.10;;
3755;SDS011;1893;52.526;13.360;2023-03-31T12:08:15;3.40;;;2.20;;
3755;SDS011;1893;52.526;13.360;2023-03-31T12:10:43;2.80;;;2.43;;
3755;SDS011;1893;52.526;13.360;2023-03-31T12:13:21;4.70;;;2.57;;
3755;SDS011;1893;52.526;13.360;2023-03-31T12:15:55;10.23;;;2.90;;
3755;SDS011;1893;52.526;13.360;2023-03-31T12:18:25;5.63;;;3.63;;
3755;SDS011;1893;52.526;13.360;2023-03-31T12:20:57;5.93;;;3.07;;
3755;SDS011;1893;52.526;13.360;2023-03-31T12:23:32;6.90;;;4.30;;
3755;SDS011;1893;52.526;13.360;2023-03-31T12:28:42;5.77;;;3.87;;
3755;SDS011;1893;52.526;13.360;2023-03-31T12:31:11;4.47;;;3.10;;
3755;SDS011;1893;52.526;13.360;2023-03-31T12:33:46;6.17;;;3.67;;
3755;SDS011;1893;52.526;13.360;2023-03-31T12:47:30;7.07;;;1.80;;
3755;SDS011;1893;52.526;13.360;2023-03-31T12:55:48;3.77;;;1.90;;
3755;SDS011;1893;52.526;13.360;2023-03-31T13:01:09;5.30;;;3.13;;
3755;SDS011;1893;52.526;13.360;2023-03-31T13:03:37;4.40;;;1.77;;
3755;SDS011;1893;52.526;13.360;2023-03-31T13:06:07;3.93;;;1.53;;
3755;SDS011;1893;52.526;13.360;2023-03-31T13:08:48;2.80;;;1.73;;
3755;SDS011;1893;52.526;13.360;2023-03-31T13:11:16;7.67;;;2.17;;
3755;SDS011;1893;52.526;13.360;2023-03-31T13:13:44;4.07;;;3.50;;
3755;SDS011;1893;52.526;13.360;2023-03-31T13:16:26;3.43;;;3.13;;
3755;SDS011;1893;52.526;13.360;2023-03-31T13:18:53;5.83;;;3.67;;
3755;SDS011;1893;52.526;13.360;2023-03-31T13:21:20;5.50;;;4.80;;
3755;SDS011;1893;52.526;13.360;2023-03-31T13:23:47;10.93;;;4.60;;
3755;SDS011;1893;52.526;13.360;2023-03-31T13:26:33;7.30;;;5.40;;
3755;SDS011;1893;52.526;13.360;2023-03-31T13:34:28;7.80;;;4.87;;
3755;SDS011;1893;52.526;13.360;2023-03-31T13:39:47;7.40;;;5.63;;
3755;SDS011;1893;52.526;13.360;2023-03-31T13:53:47;8.97;;;5.90;;
3755;SDS011;1893;52.526;13.360;2023-03-31T13:59:01;7.93;;;5.73;;
3755;SDS011;1893;52.526;13.360;2023-03-31T14:01:44;5.93;;;4.77;;
3755;SDS011;1893;52.526;13.360;2023-03-31T14:07:11;1.70;;;1.60;;
3755;SDS011;1893;52.526;13.360;2023-03-31T14:09:42;2.13;;;1.10;;
3755;SDS011;1893;52.526;13.360;2023-03-31T14:12:20;1.50;;;1.40;;
3755;SDS011;1893;52.526;13.360;2023-03-31T14:14:53;2.53;;;1.20;;
3755;SDS011;1893;52.526;13.360;2023-03-31T14:17:20;4.63;;;1.93;;
3755;SDS011;1893;52.526;13.360;2023-03-31T14:36:28;1.60;;;1.10;;
3755;SDS011;1893;52.526;13.360;2023-03-31T14:39:04;1.10;;;1.00;;
3755;SDS011;1893;52.526;13.360;2023-03-31T14:41:33;0.80;;;0.80;;
3755;SDS011;1893;52.526;13.360;2023-03-31T14:44:02;1.50;;;1.20;;
3755;SDS011;1893;52.526;13.360;2023-03-31T14:46:30;2.70;;;1.07;;
3755;SDS011;1893;52.526;13.360;2023-03-31T14:48:57;3.30;;;0.90;;
3755;SDS011;1893;52.526;13.360;2023-03-31T14:51:27;1.30;;;1.00;;
3755;SDS011;1893;52.526;13.360;2023-03-31T14:54:00;4.20;;;1.00;;
3755;SDS011;1893;52.526;13.360;2023-03-31T14:56:48;2.77;;;1.33;;
3755;SDS011;1893;52.526;13.360;2023-03-31T14:59:23;5.13;;;1.37;;
3755;SDS011;1893;52.526;13.360;2023-03-31T15:01:51;2.10;;;1.67;;
3755;SDS011;1893;52.526;13.360;2023-03-31T15:04:21;3.20;;;1.70;;
3755;SDS011;1893;52.526;13.360;2023-03-31T15:06:49;1.83;;;1.13;;
3755;SDS011;1893;52.526;13.360;2023-03-31T15:09:23;1.10;;;1.00;;
3755;SDS011;1893;52.526;13.360;2023-03-31T15:12:03;1.00;;;0.90;;
3755;SDS011;1893;52.526;13.360;2023-03-31T15:14:36;1.23;;;1.10;;
3755;SDS011;1893;52.526;13.360;2023-03-31T15:17:17;1.93;;;1.20;;
3755;SDS011;1893;52.526;13.360;2023-03-31T15:19:53;1.57;;;1.10;;
3755;SDS011;1893;52.526;13.360;2023-03-31T15:22:21;1.20;;;1.10;;
3755;SDS011;1893;52.526;13.360;2023-03-31T15:24:51;2.10;;;0.90;;
3755;SDS011;1893;52.526;13.360;2023-03-31T15:29:55;1.73;;;1.00;;
3755;SDS011;1893;52.526;13.360;2023-03-31T15:32:25;1.67;;;1.30;;
3755;SDS011;1893;52.526;13.360;2023-03-31T15:34:52;1.60;;;1.50;;
3755;SDS011;1893;52.526;13.360;2023-03-31T15:37:29;2.60;;;0.90;;
3755;SDS011;1893;52.526;13.360;2023-03-31T15:40:01;1.37;;;1.07;;
3755;SDS011;1893;52.526;13.360;2023-03-31T15:42:32;2.70;;;1.60;;
3755;SDS011;1893;52.526;13.360;2023-03-31T15:47:49;5.47;;;2.00;;
3755;SDS011;1893;52.526;13.360;2023-03-31T15:50:16;1.30;;;1.00;;
3755;SDS011;1893;52.526;13.360;2023-03-31T15:52:46;2.97;;;1.63;;
3755;SDS011;1893;52.526;13.360;2023-03-31T15:57:53;3.53;;;1.20;;
3755;SDS011;1893;52.526;13.360;2023-03-31T16:03:02;2.00;;;1.83;;
3755;SDS011;1893;52.526;13.360;2023-03-31T16:05:40;4.97;;;1.53;;
3755;SDS011;1893;52.526;13.360;2023-03-31T16:08:11;6.10;;;1.57;;
3755;SDS011;1893;52.526;13.360;2023-03-31T16:10:40;3.00;;;1.50;;
3755;SDS011;1893;52.526;13.360;2023-03-31T16:13:07;3.20;;;2.10;;
3755;SDS011;1893;52.526;13.360;2023-03-31T16:15:39;2.80;;;1.40;;
3755;SDS011;1893;52.526;13.360;2023-03-31T16:18:09;4.17;;;1.30;;
3755;SDS011;1893;52.526;13.360;2023-03-31T16:20:51;2.33;;;1.07;;
3755;SDS011;1893;52.526;13.360;2023-03-31T16:23:22;1.50;;;1.40;;
3755;SDS011;1893;52.526;13.360;2023-03-31T16:25:51;1.50;;;1.20;;
3755;SDS011;1893;52.526;13.360;2023-03-31T16:28:18;1.97;;;1.87;;
3755;SDS011;1893;52.526;13.360;2023-03-31T16:30:48;2.43;;;1.40;;
3755;SDS011;1893;52.526;13.360;2023-03-31T16:33:15;2.50;;;1.27;;
3755;SDS011;1893;52.526;13.360;2023-03-31T16:35:43;2.00;;;1.50;;
3755;SDS011;1893;52.526;13.360;2023-03-31T16:38:15;1.40;;;1.23;;
3755;SDS011;1893;52.526;13.360;2023-03-31T16:40:42;2.27;;;1.20;;
3755;SDS011;1893;52.526;13.360;2023-03-31T16:43:10;1.40;;;1.30;;
3755;SDS011;1893;52.526;13.360;2023-03-31T16:45:44;4.03;;;1.50;;
3755;SDS011;1893;52.526;13.360;2023-03-31T16:48:12;1.80;;;1.30;;
3755;SDS011;1893;52.526;13.360;2023-03-31T16:50:41;2.00;;;1.10;;
3755;SDS011;1893;52.526;13.360;2023-03-31T16:53:08;3.17;;;1.47;;
3755;SDS011;1893;52.526;13.360;2023-03-31T16:55:34;2.13;;;1.80;;
3755;SDS011;1893;52.526;13.360;2023-03-31T16:58:00;4.50;;;2.43;;
3755;SDS011;1893;52.526;13.360;2023-03-31T17:00:31;2.47;;;1.60;;
3755;SDS011;1893;52.526;13.360;2023-03-31T17:03:03;2.23;;;1.40;;
3755;SDS011;1893;52.526;13.360;2023-03-31T17:05:29;5.50;;;3.23;;
3755;SDS011;1893;52.526;13.360;2023-03-31T17:07:57;3.23;;;1.63;;
3755;SDS011;1893;52.526;13.360;2023-03-31T17:10:22;2.13;;;1.57;;
3755;SDS011;1893;52.526;13.360;2023-03-31T17:12:48;3.67;;;1.80;;
3755;SDS011;1893;52.526;13.360;2023-03-31T17:15:14;4.17;;;2.33;;
3755;SDS011;1893;52.526;13.360;2023-03-31T17:17:40;3.17;;;2.13;;
3755;SDS011;1893;52.526;13.360;2023-03-31T17:20:06;1.60;;;1.50;;
3755;SDS011;1893;52.526;13.360;2023-03-31T17:22:33;3.00;;;1.60;;
3755;SDS011;1893;52.526;13.360;2023-03-31T17:24:58;1.70;;;1.27;;
3755;SDS011;1893;52.526;13.360;2023-03-31T17:27:24;1.70;;;1.60;;
3755;SDS011;1893;52.526;13.360;2023-03-31T17:29:51;2.60;;;1.30;;
3755;SDS011;1893;52.526;13.360;2023-03-31T17:32:17;4.60;;;2.00;;
3755;SDS011;1893;52.526;13.360;2023-03-31T17:34:44;2.17;;;1.83;;
3755;SDS011;1893;52.526;13.360;2023-03-31T17:37:11;1.73;;;1.30;;
3755;SDS011;1893;52.526;13.360;2023-03-31T17:39:37;2.27;;;1.57;;
3755;SDS011;1893;52.526;13.360;2023-03-31T17:42:03;2.20;;;1.33;;
3755;SDS011;1893;52.526;13.360;2023-03-31T17:44:29;1.37;;;1.27;;
3755;SDS011;1893;52.526;13.360;2023-03-31T17:46:55;3.43;;;1.60;;
3755;SDS011;1893;52.526;13.360;2023-03-31T17:49:21;1.70;;;1.20;;
3755;SDS011;1893;52.526;13.360;2023-03-31T17:51:47;2.13;;;1.30;;
3755;SDS011;1893;52.526;13.360;2023-03-31T17:54:13;1.97;;;1.83;;
3755;SDS011;1893;52.526;13.360;2023-03-31T17:56:39;1.70;;;1.60;;
3755;SDS011;1893;52.526;13.360;2023-03-31T17:59:06;2.80;;;1.70;;
3755;SDS011;1893;52.526;13.360;2023-03-31T18:01:31;1.93;;;1.73;;
3755;SDS011;1893;52.526;13.360;2023-03-31T18:03:57;1.93;;;1.73;;
3755;SDS011;1893;52.526;13.360;2023-03-31T18:06:23;15.33;;;3.80;;
3755;SDS011;1893;52.526;13.360;2023-03-31T18:08:49;6.70;;;2.27;;
3755;SDS011;1893;52.526;13.360;2023-03-31T18:11:15;3.57;;;1.90;;
3755;SDS011;1893;52.526;13.360;2023-03-31T18:13:41;3.00;;;2.20;;
3755;SDS011;1893;52.526;13.360;2023-03-31T18:16:07;2.43;;;1.90;;
3755;SDS011;1893;52.526;13.360;2023-03-31T18:18:33;4.40;;;2.23;;
3755;SDS011;1893;52.526;13.360;2023-03-31T18:21:07;7.70;;;2.50;;
3755;SDS011;1893;52.526;13.360;2023-03-31T18:23:34;2.63;;;2.43;;
3755;SDS011;1893;52.526;13.360;2023-03-31T18:26:01;3.20;;;2.40;;
3755;SDS011;1893;52.526;13.360;2023-03-31T18:28:29;2.60;;;2.40;;